sensor_id;sensor_type;location;lat;lon;timestamp;pressure;altitude;pressure_sealevel;temperature;humidity
77543;BME280;66669;52.100;5.104;2023-02-24T00:01:25;101622.31;;;21.04;39.53
77543;BME280;66669;52.100;5.104;2023-02-24T00:03:54;101620.25;;;21.01;39.66
77543;BME280;66669;52.100;5.104;2023-02-24T00:06:28;101616.84;;;21.08;39.57
77543;BME280;66669;52.100;5.104;2023-02-24T00:09:18;101613.66;;;21.09;39.71
77543;BME280;66669;52.100;5.104;2023-02-24T00:11:56;101613.75;;;21.13;39.60
77543;BME280;66669;52.100;5.104;2023-02-24T00:14:24;101612.78;;;21.05;39.73
77543;BME280;66669;52.100;5.104;2023-02-24T00:16:51;101613.94;;;21.04;39.47
77543;BME280;66669;52.100;5.104;2023-02-24T00:21:52;101597.41;;;21.11;39.58
77543;BME280;66669;52.100;5.104;2023-02-24T00:24:21;101592.63;;;21.12;39.50
77543;BME280;66669;52.100;5.104;2023-02-24T00:27:00;101586.88;;;21.21;39.99
77543;BME280;66669;52.100;5.104;2023-02-24T00:29:27;101581.84;;;21.10;39.68
77543;BME280;66669;52.100;5.104;2023-02-24T00:31:53;101585.44;;;21.11;39.56
77543;BME280;66669;52.100;5.104;2023-02-24T00:34:28;101580.69;;;21.11;39.42
77543;BME280;66669;52.100;5.104;2023-02-24T00:36:54;101582.94;;;20.58;37.87
77543;BME280;66669;52.100;5.104;2023-02-24T00:39:19;101576.03;;;20.24;37.68
77543;BME280;66669;52.100;5.104;2023-02-24T00:41:55;101581.16;;;19.94;37.90
77543;BME280;66669;52.100;5.104;2023-02-24T00:44:33;101578.22;;;19.75;38.08
77543;BME280;66669;52.100;5.104;2023-02-24T00:46:59;101571.63;;;19.55;38.74
77543;BME280;66669;52.100;5.104;2023-02-24T00:49:26;101568.66;;;19.48;38.77
77543;BME280;66669;52.100;5.104;2023-02-24T00:51:51;101563.69;;;19.29;38.79
77543;BME280;66669;52.100;5.104;2023-02-24T00:54:20;101569.97;;;19.26;38.24
77543;BME280;66669;52.100;5.104;2023-02-24T00:56:48;101556.88;;;19.14;39.07
77543;BME280;66669;52.100;5.104;2023-02-24T00:59:16;101554.22;;;19.05;39.45
77543;BME280;66669;52.100;5.104;2023-02-24T01:01:43;101555.84;;;18.94;39.13
77543;BME280;66669;52.100;5.104;2023-02-24T01:04:14;101545.09;;;18.80;39.33
77543;BME280;66669;52.100;5.104;2023-02-24T01:06:42;101542.88;;;18.74;39.15
77543;BME280;66669;52.100;5.104;2023-02-24T01:09:11;101542.16;;;18.64;39.81
77543;BME280;66669;52.100;5.104;2023-02-24T01:11:37;101536.34;;;18.57;39.77
77543;BME280;66669;52.100;5.104;2023-02-24T01:14:27;101529.31;;;18.48;39.40
77543;BME280;66669;52.100;5.104;2023-02-24T01:16:54;101528.94;;;18.49;39.52
77543;BME280;66669;52.100;5.104;2023-02-24T01:19:22;101524.53;;;18.36;39.93
77543;BME280;66669;52.100;5.104;2023-02-24T01:21:47;101512.97;;;18.34;40.26
77543;BME280;66669;52.100;5.104;2023-02-24T01:24:23;101507.53;;;18.25;40.44
77543;BME280;66669;52.100;5.104;2023-02-24T01:26:48;101509.56;;;18.16;39.92
77543;BME280;66669;52.100;5.104;2023-02-24T01:29:14;101503.22;;;18.15;40.15
77543;BME280;66669;52.100;5.104;2023-02-24T01:31:39;101494.88;;;18.03;40.16
77543;BME280;66669;52.100;5.104;2023-02-24T01:34:07;101490.47;;;18.02;39.79
77543;BME280;66669;52.100;5.104;2023-02-24T01:36:36;101483.44;;;18.05;39.96
77543;BME280;66669;52.100;5.104;2023-02-24T01:39:03;101481.47;;;18.05;39.63
77543;BME280;66669;52.100;5.104;2023-02-24T01:41:30;101475.00;;;18.01;39.94
77543;BME280;66669;52.100;5.104;2023-02-24T01:44:02;101474.75;;;17.94;39.39
77543;BME280;66669;52.100;5.104;2023-02-24T01:46:37;101468.97;;;17.87;39.29
77543;BME280;66669;52.100;5.104;2023-02-24T01:52:07;101453.22;;;17.79;39.82
77543;BME280;66669;52.100;5.104;2023-02-24T01:54:39;101456.50;;;17.72;39.55
77543;BME280;66669;52.100;5.104;2023-02-24T01:57:08;101453.75;;;17.72;39.56
77543;BME280;66669;52.100;5.104;2023-02-24T01:59:36;101451.72;;;17.60;39.52
77543;BME280;66669;52.100;5.104;2023-02-24T02:02:04;101443.53;;;17.64;39.88
77543;BME280;66669;52.100;5.104;2023-02-24T02:04:50;101445.16;;;17.65;39.62
77543;BME280;66669;52.100;5.104;2023-02-24T02:07:20;101450.13;;;17.59;39.62
77543;BME280;66669;52.100;5.104;2023-02-24T02:09:49;101447.78;;;17.49;39.70
77543;BME280;66669;52.100;5.104;2023-02-24T02:12:15;101446.25;;;17.52;39.95
77543;BME280;66669;52.100;5.104;2023-02-24T02:14:43;101446.47;;;17.46;40.20
77543;BME280;66669;52.100;5.104;2023-02-24T02:36:30;101392.03;;;17.30;39.73
77543;BME280;66669;52.100;5.104;2023-02-24T02:39:41;101399.06;;;17.27;40.06
77543;BME280;66669;52.100;5.104;2023-02-24T02:45:08;101396.38;;;17.18;40.18
77543;BME280;66669;52.100;5.104;2023-02-24T02:47:46;101390.97;;;17.22;39.72
77543;BME280;66669;52.100;5.104;2023-02-24T02:52:48;101386.16;;;17.10;39.78
77543;BME280;66669;52.100;5.104;2023-02-24T02:55:21;101379.69;;;17.06;39.92
77543;BME280;66669;52.100;5.104;2023-02-24T02:57:52;101386.38;;;17.05;40.25
77543;BME280;66669;52.100;5.104;2023-02-24T03:00:25;101381.88;;;17.01;39.98
77543;BME280;66669;52.100;5.104;2023-02-24T03:02:57;101373.22;;;17.02;40.26
77543;BME280;66669;52.100;5.104;2023-02-24T03:05:30;101382.22;;;16.99;40.94
77543;BME280;66669;52.100;5.104;2023-02-24T03:08:00;101367.06;;;16.96;40.05
77543;BME280;66669;52.100;5.104;2023-02-24T03:10:29;101360.59;;;16.92;40.00
77543;BME280;66669;52.100;5.104;2023-02-24T03:13:00;101353.44;;;16.91;40.11
77543;BME280;66669;52.100;5.104;2023-02-24T03:15:29;101347.78;;;16.88;39.83
77543;BME280;66669;52.100;5.104;2023-02-24T03:18:08;101348.34;;;16.81;40.13
77543;BME280;66669;52.100;5.104;2023-02-24T03:20:40;101350.25;;;16.81;40.04
77543;BME280;66669;52.100;5.104;2023-02-24T03:23:13;101346.69;;;16.80;40.33
77543;BME280;66669;52.100;5.104;2023-02-24T03:25:51;101335.63;;;16.80;40.60
77543;BME280;66669;52.100;5.104;2023-02-24T03:31:05;101328.13;;;16.81;40.11
77543;BME280;66669;52.100;5.104;2023-02-24T03:33:38;101324.91;;;16.79;39.74
77543;BME280;66669;52.100;5.104;2023-02-24T03:36:05;101319.56;;;16.74;40.57
77543;BME280;66669;52.100;5.104;2023-02-24T03:38:32;101312.72;;;16.71;40.59
77543;BME280;66669;52.100;5.104;2023-02-24T03:40:58;101315.34;;;16.67;39.81
77543;BME280;66669;52.100;5.104;2023-02-24T03:43:31;101309.13;;;16.70;39.94
77543;BME280;66669;52.100;5.104;2023-02-24T03:45:59;101305.44;;;16.66;40.20
77543;BME280;66669;52.100;5.104;2023-02-24T03:48:27;101307.53;;;16.69;39.91
77543;BME280;66669;52.100;5.104;2023-02-24T03:50:53;101299.69;;;16.71;40.43
77543;BME280;66669;52.100;5.104;2023-02-24T03:53:24;101295.31;;;16.70;40.11
77543;BME280;66669;52.100;5.104;2023-02-24T04:01:09;101292.41;;;16.67;40.01
77543;BME280;66669;52.100;5.104;2023-02-24T04:06:47;101285.59;;;16.64;40.15
77543;BME280;66669;52.100;5.104;2023-02-24T04:12:12;101280.97;;;16.68;40.95
77543;BME280;66669;52.100;5.104;2023-02-24T04:14:45;101283.81;;;16.60;40.40
77543;BME280;66669;52.100;5.104;2023-02-24T04:17:43;101278.41;;;16.63;39.87
77543;BME280;66669;52.100;5.104;2023-02-24T04:20:11;101271.13;;;16.59;40.29
77543;BME280;66669;52.100;5.104;2023-02-24T04:22:46;101270.94;;;16.64;40.44
77543;BME280;66669;52.100;5.104;2023-02-24T04:25:17;101272.75;;;16.60;40.16
77543;BME280;66669;52.100;5.104;2023-02-24T04:27:44;101262.31;;;16.65;40.09
77543;BME280;66669;52.100;5.104;2023-02-24T04:30:11;101262.53;;;16.60;40.43
77543;BME280;66669;52.100;5.104;2023-02-24T04:32:37;101250.63;;;16.60;40.05
77543;BME280;66669;52.100;5.104;2023-02-24T04:35:08;101242.66;;;16.58;40.19
77543;BME280;66669;52.100;5.104;2023-02-24T04:37:36;101239.31;;;16.53;40.48
77543;BME280;66669;52.100;5.104;2023-02-24T04:40:04;101227.44;;;16.52;40.20
77543;BME280;66669;52.100;5.104;2023-02-24T04:42:37;101221.34;;;16.59;39.98
77543;BME280;66669;52.100;5.104;2023-02-24T04:45:12;101224.03;;;16.46;39.96
77543;BME280;66669;52.100;5.104;2023-02-24T04:47:38;101219.38;;;16.38;39.88
77543;BME280;66669;52.100;5.104;2023-02-24T04:50:07;101208.00;;;16.40;40.31
77543;BME280;66669;52.100;5.104;2023-02-24T04:52:35;101208.47;;;16.42;40.21
77543;BME280;66669;52.100;5.104;2023-02-24T04:55:00;101211.09;;;16.38;40.27
77543;BME280;66669;52.100;5.104;2023-02-24T04:57:25;101209.84;;;16.36;40.50
77543;BME280;66669;52.100;5.104;2023-02-24T04:59:51;101210.44;;;16.41;40.61
77543;BME280;66669;52.100;5.104;2023-02-24T05:02:18;101205.44;;;16.35;40.61
77543;BME280;66669;52.100;5.104;2023-02-24T05:04:45;101201.66;;;16.39;39.97
77543;BME280;66669;52.100;5.104;2023-02-24T05:07:14;101197.47;;;16.33;40.17
77543;BME280;66669;52.100;5.104;2023-02-24T05:09:40;101197.97;;;16.35;40.20
77543;BME280;66669;52.100;5.104;2023-02-24T05:12:06;101185.25;;;16.34;40.36
77543;BME280;66669;52.100;5.104;2023-02-24T05:14:33;101183.19;;;16.31;40.62
77543;BME280;66669;52.100;5.104;2023-02-24T05:16:59;101174.19;;;16.34;40.51
77543;BME280;66669;52.100;5.104;2023-02-24T05:19:25;101174.19;;;16.34;40.24
77543;BME280;66669;52.100;5.104;2023-02-24T05:22:09;101174.09;;;16.31;39.90
77543;BME280;66669;52.100;5.104;2023-02-24T05:24:38;101168.88;;;16.29;40.18
77543;BME280;66669;52.100;5.104;2023-02-24T05:27:05;101165.72;;;16.18;40.22
77543;BME280;66669;52.100;5.104;2023-02-24T05:29:32;101158.31;;;16.10;40.01
77543;BME280;66669;52.100;5.104;2023-02-24T05:31:59;101157.63;;;16.13;40.08
77543;BME280;66669;52.100;5.104;2023-02-24T05:34:31;101152.84;;;16.23;40.22
77543;BME280;66669;52.100;5.104;2023-02-24T05:36:58;101150.25;;;16.17;40.12
77543;BME280;66669;52.100;5.104;2023-02-24T05:39:25;101138.53;;;16.20;40.17
77543;BME280;66669;52.100;5.104;2023-02-24T05:41:51;101135.03;;;16.11;40.25
77543;BME280;66669;52.100;5.104;2023-02-24T05:44:20;101133.56;;;16.14;40.06
77543;BME280;66669;52.100;5.104;2023-02-24T05:46:55;101130.59;;;16.19;40.19
77543;BME280;66669;52.100;5.104;2023-02-24T05:49:25;101122.28;;;16.19;40.76
77543;BME280;66669;52.100;5.104;2023-02-24T05:51:55;101096.59;;;16.18;40.24
77543;BME280;66669;52.100;5.104;2023-02-24T05:54:24;101094.59;;;16.07;39.42
77543;BME280;66669;52.100;5.104;2023-02-24T05:56:53;101099.84;;;16.00;40.07
77543;BME280;66669;52.100;5.104;2023-02-24T05:59:21;101094.19;;;15.96;40.07
77543;BME280;66669;52.100;5.104;2023-02-24T06:01:47;101088.13;;;15.82;39.71
77543;BME280;66669;52.100;5.104;2023-02-24T06:04:15;101089.28;;;15.81;39.71
77543;BME280;66669;52.100;5.104;2023-02-24T06:07:24;101082.19;;;15.71;40.09
77543;BME280;66669;52.100;5.104;2023-02-24T06:10:00;101080.88;;;15.77;39.92
77543;BME280;66669;52.100;5.104;2023-02-24T06:12:27;101075.09;;;15.61;39.91
77543;BME280;66669;52.100;5.104;2023-02-24T06:14:54;101074.41;;;15.73;40.91
77543;BME280;66669;52.100;5.104;2023-02-24T06:17:20;101070.47;;;15.74;39.89
77543;BME280;66669;52.100;5.104;2023-02-24T06:19:49;101077.16;;;15.73;40.33
77543;BME280;66669;52.100;5.104;2023-02-24T06:22:18;101076.00;;;15.74;40.24
77543;BME280;66669;52.100;5.104;2023-02-24T06:24:44;101065.75;;;15.75;39.86
77543;BME280;66669;52.100;5.104;2023-02-24T06:27:11;101063.66;;;15.71;40.35
77543;BME280;66669;52.100;5.104;2023-02-24T06:29:43;101055.41;;;15.63;40.13
77543;BME280;66669;52.100;5.104;2023-02-24T06:32:09;101062.56;;;15.64;40.01
77543;BME280;66669;52.100;5.104;2023-02-24T06:34:35;101049.28;;;15.57;40.29
77543;BME280;66669;52.100;5.104;2023-02-24T06:37:00;101047.97;;;15.63;40.54
77543;BME280;66669;52.100;5.104;2023-02-24T06:39:28;101045.22;;;15.55;40.08
77543;BME280;66669;52.100;5.104;2023-02-24T06:41:54;101049.44;;;15.61;40.39
77543;BME280;66669;52.100;5.104;2023-02-24T06:44:19;101049.59;;;15.64;40.27
77543;BME280;66669;52.100;5.104;2023-02-24T06:46:44;101042.59;;;15.58;40.74
77543;BME280;66669;52.100;5.104;2023-02-24T06:49:11;101029.75;;;15.62;40.63
77543;BME280;66669;52.100;5.104;2023-02-24T06:51:37;101020.34;;;15.63;40.04
77543;BME280;66669;52.100;5.104;2023-02-24T06:54:03;101027.78;;;15.63;40.72
77543;BME280;66669;52.100;5.104;2023-02-24T06:56:30;101034.63;;;15.65;40.74
77543;BME280;66669;52.100;5.104;2023-02-24T06:59:03;101021.88;;;15.52;40.27
77543;BME280;66669;52.100;5.104;2023-02-24T07:01:31;101022.00;;;15.56;40.54
77543;BME280;66669;52.100;5.104;2023-02-24T07:03:59;101025.38;;;15.61;41.04
77543;BME280;66669;52.100;5.104;2023-02-24T07:06:47;101027.94;;;15.66;41.07
77543;BME280;66669;52.100;5.104;2023-02-24T07:09:15;101020.72;;;15.53;40.57
77543;BME280;66669;52.100;5.104;2023-02-24T07:11:43;101006.53;;;15.63;41.14
77543;BME280;66669;52.100;5.104;2023-02-24T07:14:10;101000.31;;;15.66;41.07
77543;BME280;66669;52.100;5.104;2023-02-24T07:16:38;100997.25;;;15.68;40.40
77543;BME280;66669;52.100;5.104;2023-02-24T07:19:09;100999.72;;;15.61;40.84
77543;BME280;66669;52.100;5.104;2023-02-24T07:21:39;100994.72;;;15.54;40.45
77543;BME280;66669;52.100;5.104;2023-02-24T07:24:09;100999.72;;;15.61;41.29
77543;BME280;66669;52.100;5.104;2023-02-24T07:26:38;100989.66;;;15.56;41.07
77543;BME280;66669;52.100;5.104;2023-02-24T07:29:05;100998.22;;;15.63;40.77
77543;BME280;66669;52.100;5.104;2023-02-24T07:31:31;100986.06;;;15.64;40.99
77543;BME280;66669;52.100;5.104;2023-02-24T07:33:58;100981.53;;;15.60;41.25
77543;BME280;66669;52.100;5.104;2023-02-24T07:36:26;100979.44;;;15.57;41.30
77543;BME280;66669;52.100;5.104;2023-02-24T07:38:55;100979.38;;;15.65;41.34
77543;BME280;66669;52.100;5.104;2023-02-24T07:41:23;100976.13;;;15.63;41.97
77543;BME280;66669;52.100;5.104;2023-02-24T07:43:51;100975.66;;;15.61;41.17
77543;BME280;66669;52.100;5.104;2023-02-24T07:46:23;100972.88;;;15.61;42.24
77543;BME280;66669;52.100;5.104;2023-02-24T07:48:52;100967.72;;;15.60;41.63
77543;BME280;66669;52.100;5.104;2023-02-24T07:51:20;100962.84;;;15.57;42.36
77543;BME280;66669;52.100;5.104;2023-02-24T07:53:57;100949.31;;;15.64;42.10
77543;BME280;66669;52.100;5.104;2023-02-24T07:56:23;100949.19;;;15.60;42.11
77543;BME280;66669;52.100;5.104;2023-02-24T07:58:55;100956.41;;;15.74;42.48
77543;BME280;66669;52.100;5.104;2023-02-24T08:01:25;100953.63;;;15.74;41.82
77543;BME280;66669;52.100;5.104;2023-02-24T08:03:59;100942.16;;;15.63;42.32
77543;BME280;66669;52.100;5.104;2023-02-24T08:06:32;100953.09;;;15.59;41.92
77543;BME280;66669;52.100;5.104;2023-02-24T08:09:19;100953.09;;;15.59;42.29
77543;BME280;66669;52.100;5.104;2023-02-24T08:11:49;100955.16;;;15.62;42.30
77543;BME280;66669;52.100;5.104;2023-02-24T08:14:26;100949.63;;;15.62;42.43
77543;BME280;66669;52.100;5.104;2023-02-24T08:16:55;100947.53;;;15.68;42.68
77543;BME280;66669;52.100;5.104;2023-02-24T08:19:26;100944.06;;;15.71;42.43
77543;BME280;66669;52.100;5.104;2023-02-24T08:21:58;100944.63;;;15.64;42.49
77543;BME280;66669;52.100;5.104;2023-02-24T08:24:47;100933.34;;;15.69;42.78
77543;BME280;66669;52.100;5.104;2023-02-24T08:27:19;100929.97;;;15.64;42.71
77543;BME280;66669;52.100;5.104;2023-02-24T08:29:49;100926.72;;;15.62;42.70
77543;BME280;66669;52.100;5.104;2023-02-24T08:32:45;100928.25;;;15.59;42.86
77543;BME280;66669;52.100;5.104;2023-02-24T08:35:16;100915.56;;;15.58;42.61
77543;BME280;66669;52.100;5.104;2023-02-24T08:37:47;100902.91;;;15.57;43.07
77543;BME280;66669;52.100;5.104;2023-02-24T08:40:18;100898.78;;;15.63;43.50
77543;BME280;66669;52.100;5.104;2023-02-24T08:45:41;100895.84;;;15.68;43.43
77543;BME280;66669;52.100;5.104;2023-02-24T08:48:09;100898.72;;;15.72;43.65
77543;BME280;66669;52.100;5.104;2023-02-24T08:50:46;100909.78;;;15.72;43.75
77543;BME280;66669;52.100;5.104;2023-02-24T08:53:12;100907.13;;;15.76;43.49
77543;BME280;66669;52.100;5.104;2023-02-24T08:55:44;100896.53;;;15.78;43.34
77543;BME280;66669;52.100;5.104;2023-02-24T08:58:09;100906.00;;;15.77;44.03
77543;BME280;66669;52.100;5.104;2023-02-24T09:00:42;100889.19;;;15.82;44.04
77543;BME280;66669;52.100;5.104;2023-02-24T09:03:16;100887.09;;;15.79;43.72
77543;BME280;66669;52.100;5.104;2023-02-24T09:08:21;100871.94;;;15.85;43.98
77543;BME280;66669;52.100;5.104;2023-02-24T09:10:48;100865.78;;;15.79;43.75
77543;BME280;66669;52.100;5.104;2023-02-24T09:13:13;100870.75;;;15.74;43.75
77543;BME280;66669;52.100;5.104;2023-02-24T09:15:39;100869.34;;;15.80;43.94
77543;BME280;66669;52.100;5.104;2023-02-24T09:18:08;100864.88;;;15.75;43.81
77543;BME280;66669;52.100;5.104;2023-02-24T09:20:38;100856.56;;;15.75;43.99
77543;BME280;66669;52.100;5.104;2023-02-24T09:23:40;100852.22;;;15.74;44.50
77543;BME280;66669;52.100;5.104;2023-02-24T09:26:12;100842.22;;;15.94;45.24
77543;BME280;66669;52.100;5.104;2023-02-24T09:28:39;100832.78;;;16.19;45.00
77543;BME280;66669;52.100;5.104;2023-02-24T09:31:19;100839.09;;;16.57;45.42
77543;BME280;66669;52.100;5.104;2023-02-24T09:33:48;100821.19;;;16.79;46.47
77543;BME280;66669;52.100;5.104;2023-02-24T09:36:18;100818.84;;;16.81;44.35
77543;BME280;66669;52.100;5.104;2023-02-24T09:38:58;100817.31;;;16.95;42.88
77543;BME280;66669;52.100;5.104;2023-02-24T09:44:04;100833.63;;;17.13;44.03
77543;BME280;66669;52.100;5.104;2023-02-24T09:47:16;100819.41;;;17.14;42.60
77543;BME280;66669;52.100;5.104;2023-02-24T09:49:55;100815.50;;;17.15;42.88
77543;BME280;66669;52.100;5.104;2023-02-24T09:52:27;100812.91;;;17.23;43.80
77543;BME280;66669;52.100;5.104;2023-02-24T09:55:38;100808.38;;;17.30;43.74
77543;BME280;66669;52.100;5.104;2023-02-24T10:06:43;100795.97;;;17.40;43.41
77543;BME280;66669;52.100;5.104;2023-02-24T10:09:23;100793.75;;;17.30;42.90
77543;BME280;66669;52.100;5.104;2023-02-24T10:11:56;100789.53;;;17.36;43.66
77543;BME280;66669;52.100;5.104;2023-02-24T10:17:23;100784.09;;;17.39;43.16
77543;BME280;66669;52.100;5.104;2023-02-24T10:19:59;100775.59;;;17.48;43.30
77543;BME280;66669;52.100;5.104;2023-02-24T10:22:39;100783.84;;;17.44;43.17
77543;BME280;66669;52.100;5.104;2023-02-24T10:25:41;100778.84;;;17.50;43.43
77543;BME280;66669;52.100;5.104;2023-02-24T10:28:49;100786.44;;;17.53;44.00
77543;BME280;66669;52.100;5.104;2023-02-24T10:31:24;100772.66;;;17.57;43.69
77543;BME280;66669;52.100;5.104;2023-02-24T10:34:02;100776.69;;;17.59;43.70
77543;BME280;66669;52.100;5.104;2023-02-24T10:36:31;100769.72;;;17.50;43.27
77543;BME280;66669;52.100;5.104;2023-02-24T10:39:20;100768.28;;;17.56;43.53
77543;BME280;66669;52.100;5.104;2023-02-24T10:41:57;100771.25;;;17.63;43.69
77543;BME280;66669;52.100;5.104;2023-02-24T10:44:41;100767.13;;;17.73;43.99
77543;BME280;66669;52.100;5.104;2023-02-24T10:47:18;100764.16;;;17.65;43.58
77543;BME280;66669;52.100;5.104;2023-02-24T10:49:45;100762.81;;;17.43;43.38
77543;BME280;66669;52.100;5.104;2023-02-24T10:52:32;100758.00;;;17.56;43.71
77543;BME280;66669;52.100;5.104;2023-02-24T10:58:00;100745.94;;;17.64;44.67
77543;BME280;66669;52.100;5.104;2023-02-24T11:00:46;100737.81;;;17.87;44.79
77543;BME280;66669;52.100;5.104;2023-02-24T11:03:30;100745.41;;;17.90;45.82
77543;BME280;66669;52.100;5.104;2023-02-24T11:06:22;100737.81;;;17.87;45.29
77543;BME280;66669;52.100;5.104;2023-02-24T11:09:18;100725.84;;;17.83;45.27
77543;BME280;66669;52.100;5.104;2023-02-24T11:11:55;100720.72;;;17.85;44.92
77543;BME280;66669;52.100;5.104;2023-02-24T11:14:51;100726.19;;;17.82;44.48
77543;BME280;66669;52.100;5.104;2023-02-24T11:17:45;100729.50;;;17.87;44.70
77543;BME280;66669;52.100;5.104;2023-02-24T11:20:24;100736.03;;;17.79;45.80
77543;BME280;66669;52.100;5.104;2023-02-24T11:22:51;100727.53;;;17.88;44.91
77543;BME280;66669;52.100;5.104;2023-02-24T11:25:37;100724.47;;;17.93;45.12
77543;BME280;66669;52.100;5.104;2023-02-24T11:28:19;100721.63;;;17.89;44.96
77543;BME280;66669;52.100;5.104;2023-02-24T11:30:59;100716.19;;;17.77;45.37
77543;BME280;66669;52.100;5.104;2023-02-24T11:33:38;100710.09;;;17.71;44.58
77543;BME280;66669;52.100;5.104;2023-02-24T11:41:54;100692.25;;;17.53;46.93
77543;BME280;66669;52.100;5.104;2023-02-24T11:44:35;100687.13;;;17.55;46.39
77543;BME280;66669;52.100;5.104;2023-02-24T11:47:12;100685.06;;;17.84;46.44
77543;BME280;66669;52.100;5.104;2023-02-24T11:49:47;100673.78;;;17.92;46.69
77543;BME280;66669;52.100;5.104;2023-02-24T11:52:35;100670.72;;;17.98;46.57
77543;BME280;66669;52.100;5.104;2023-02-24T11:55:14;100667.72;;;18.06;45.94
77543;BME280;66669;52.100;5.104;2023-02-24T11:57:47;100671.19;;;18.19;46.43
77543;BME280;66669;52.100;5.104;2023-02-24T12:00:18;100666.56;;;18.07;45.01
77543;BME280;66669;52.100;5.104;2023-02-24T12:03:12;100663.00;;;18.07;44.85
77543;BME280;66669;52.100;5.104;2023-02-24T12:05:46;100659.72;;;18.20;44.99
77543;BME280;66669;52.100;5.104;2023-02-24T12:08:32;100654.97;;;18.02;44.09
77543;BME280;66669;52.100;5.104;2023-02-24T12:12:03;100653.06;;;18.06;45.19
77543;BME280;66669;52.100;5.104;2023-02-24T12:17:00;100653.56;;;18.11;44.42
77543;BME280;66669;52.100;5.104;2023-02-24T12:20:00;100648.03;;;18.11;45.93
77543;BME280;66669;52.100;5.104;2023-02-24T12:22:36;100638.47;;;18.09;46.04
77543;BME280;66669;52.100;5.104;2023-02-24T12:25:10;100638.69;;;18.00;46.08
77543;BME280;66669;52.100;5.104;2023-02-24T12:27:51;100632.56;;;17.91;45.19
77543;BME280;66669;52.100;5.104;2023-02-24T12:30:31;100616.94;;;18.02;45.89
77543;BME280;66669;52.100;5.104;2023-02-24T12:36:23;100620.31;;;17.92;45.53
77543;BME280;66669;52.100;5.104;2023-02-24T12:41:44;100623.28;;;17.83;42.60
77543;BME280;66669;52.100;5.104;2023-02-24T12:47:32;100607.00;;;17.82;43.73
77543;BME280;66669;52.100;5.104;2023-02-24T12:52:40;100609.34;;;17.80;42.71
77543;BME280;66669;52.100;5.104;2023-02-24T12:58:09;100606.94;;;17.98;42.19
77543;BME280;66669;52.100;5.104;2023-02-24T13:06:13;100604.75;;;17.87;43.17
77543;BME280;66669;52.100;5.104;2023-02-24T13:08:50;100604.47;;;17.92;43.45
77543;BME280;66669;52.100;5.104;2023-02-24T13:11:32;100591.69;;;17.88;42.46
77543;BME280;66669;52.100;5.104;2023-02-24T13:16:38;100587.09;;;17.95;43.58
77543;BME280;66669;52.100;5.104;2023-02-24T13:19:26;100580.91;;;17.83;41.55
77543;BME280;66669;52.100;5.104;2023-02-24T13:22:40;100583.38;;;17.88;44.63
77543;BME280;66669;52.100;5.104;2023-02-24T13:27:35;100569.38;;;18.00;42.89
77543;BME280;66669;52.100;5.104;2023-02-24T13:32:38;100560.38;;;18.07;43.27
77543;BME280;66669;52.100;5.104;2023-02-24T13:37:50;100562.97;;;17.96;43.13
77543;BME280;66669;52.100;5.104;2023-02-24T13:45:21;100563.75;;;17.97;44.45
77543;BME280;66669;52.100;5.104;2023-02-24T14:01:44;100577.34;;;17.66;43.50
77543;BME280;66669;52.100;5.104;2023-02-24T14:04:18;100584.88;;;17.66;43.37
77543;BME280;66669;52.100;5.104;2023-02-24T14:06:51;100571.66;;;17.59;42.47
77543;BME280;66669;52.100;5.104;2023-02-24T14:09:22;100571.28;;;17.61;42.85
77543;BME280;66669;52.100;5.104;2023-02-24T14:12:12;100572.34;;;17.56;42.76
77543;BME280;66669;52.100;5.104;2023-02-24T14:14:39;100565.94;;;17.52;43.13
77543;BME280;66669;52.100;5.104;2023-02-24T14:17:19;100567.47;;;17.50;42.33
77543;BME280;66669;52.100;5.104;2023-02-24T14:19:45;100561.66;;;17.55;42.33
77543;BME280;66669;52.100;5.104;2023-02-24T14:22:18;100571.66;;;17.59;43.00
77543;BME280;66669;52.100;5.104;2023-02-24T14:24:44;100569.59;;;17.56;42.54
77543;BME280;66669;52.100;5.104;2023-02-24T14:27:24;100563.34;;;17.59;42.42
77543;BME280;66669;52.100;5.104;2023-02-24T14:29:51;100569.09;;;17.51;42.32
77543;BME280;66669;52.100;5.104;2023-02-24T14:32:23;100571.16;;;17.38;42.17
77543;BME280;66669;52.100;5.104;2023-02-24T14:34:49;100566.59;;;17.45;42.74
77543;BME280;66669;52.100;5.104;2023-02-24T14:37:15;100556.22;;;17.42;42.35
77543;BME280;66669;52.100;5.104;2023-02-24T14:39:49;100560.50;;;17.40;42.99
77543;BME280;66669;52.100;5.104;2023-02-24T14:42:17;100551.41;;;17.39;42.14
77543;BME280;66669;52.100;5.104;2023-02-24T14:44:57;100558.13;;;17.38;42.80
77543;BME280;66669;52.100;5.104;2023-02-24T14:47:25;100554.66;;;17.26;43.79
77543;BME280;66669;52.100;5.104;2023-02-24T14:49:56;100570.91;;;17.27;43.06
77543;BME280;66669;52.100;5.104;2023-02-24T14:55:09;100547.31;;;17.33;42.31
77543;BME280;66669;52.100;5.104;2023-02-24T14:57:47;100559.50;;;17.29;41.89
77543;BME280;66669;52.100;5.104;2023-02-24T15:00:19;100555.53;;;17.30;40.85
77543;BME280;66669;52.100;5.104;2023-02-24T15:02:54;100566.09;;;17.24;41.36
77543;BME280;66669;52.100;5.104;2023-02-24T15:05:21;100562.44;;;17.20;41.36
77543;BME280;66669;52.100;5.104;2023-02-24T15:07:47;100555.94;;;17.12;41.45
77543;BME280;66669;52.100;5.104;2023-02-24T15:10:31;100549.84;;;17.23;41.56
77543;BME280;66669;52.100;5.104;2023-02-24T15:13:04;100547.81;;;17.19;41.32
77543;BME280;66669;52.100;5.104;2023-02-24T15:15:34;100542.78;;;17.25;41.30
77543;BME280;66669;52.100;5.104;2023-02-24T15:18:09;100548.41;;;17.29;41.56
77543;BME280;66669;52.100;5.104;2023-02-24T15:20:37;100556.63;;;17.25;41.19
77543;BME280;66669;52.100;5.104;2023-02-24T15:23:04;100547.88;;;17.23;40.15
77543;BME280;66669;52.100;5.104;2023-02-24T15:25:41;100549.41;;;17.20;42.14
77543;BME280;66669;52.100;5.104;2023-02-24T15:28:32;100550.03;;;17.14;41.09